sensor_id;sensor_type;location;lat;lon;timestamp;pressure;altitude;pressure_sealevel;temperature;humidity
75759;BME280;64371;47.566;19.086;2023-04-25T00:00:04;99384.31;;;11.85;77.21
75759;BME280;64371;47.566;19.086;2023-04-25T00:03:13;99385.88;;;11.86;76.75
75759;BME280;64371;47.566;19.086;2023-04-25T00:06:16;99366.13;;;11.75;76.64
75759;BME280;64371;47.566;19.086;2023-04-25T00:09:19;99372.78;;;11.73;76.70
75759;BME280;64371;47.566;19.086;2023-04-25T00:12:22;99374.03;;;11.75;76.05
75759;BME280;64371;47.566;19.086;2023-04-25T00:15:24;99365.97;;;11.72;75.82
75759;BME280;64371;47.566;19.086;2023-04-25T00:18:27;99370.94;;;11.73;75.77
75759;BME280;64371;47.566;19.086;2023-04-25T00:21:30;99363.34;;;11.72;75.53
75759;BME280;64371;47.566;19.086;2023-04-25T00:24:36;99371.25;;;11.72;75.61
75759;BME280;64371;47.566;19.086;2023-04-25T00:27:38;99368.16;;;11.70;75.35
75759;BME280;64371;47.566;19.086;2023-04-25T00:30:42;99364.84;;;11.64;75.45
75759;BME280;64371;47.566;19.086;2023-04-25T00:33:45;99362.09;;;11.69;75.81
75759;BME280;64371;47.566;19.086;2023-04-25T00:36:47;99359.91;;;11.71;75.12
75759;BME280;64371;47.566;19.086;2023-04-25T00:39:50;99360.22;;;11.70;75.15
75759;BME280;64371;47.566;19.086;2023-04-25T00:42:53;99355.41;;;11.72;75.63
75759;BME280;64371;47.566;19.086;2023-04-25T00:45:56;99353.69;;;11.67;75.47
75759;BME280;64371;47.566;19.086;2023-04-25T00:48:59;99349.47;;;11.66;75.46
75759;BME280;64371;47.566;19.086;2023-04-25T00:52:02;99340.97;;;11.69;75.23
75759;BME280;64371;47.566;19.086;2023-04-25T00:55:05;99339.53;;;11.63;76.07
75759;BME280;64371;47.566;19.086;2023-04-25T00:58:07;99338.28;;;11.61;75.97
75759;BME280;64371;47.566;19.086;2023-04-25T01:01:10;99354.59;;;11.63;75.29
75759;BME280;64371;47.566;19.086;2023-04-25T01:04:13;99351.16;;;11.54;75.35
75759;BME280;64371;47.566;19.086;2023-04-25T01:07:16;99342.31;;;11.50;76.39
75759;BME280;64371;47.566;19.086;2023-04-25T01:10:19;99339.81;;;11.45;76.24
75759;BME280;64371;47.566;19.086;2023-04-25T01:13:21;99326.63;;;11.53;75.68
75759;BME280;64371;47.566;19.086;2023-04-25T01:16:24;99330.50;;;11.56;75.68
75759;BME280;64371;47.566;19.086;2023-04-25T01:19:27;99322.00;;;11.50;74.71
75759;BME280;64371;47.566;19.086;2023-04-25T01:22:30;99320.09;;;11.51;75.79
75759;BME280;64371;47.566;19.086;2023-04-25T01:25:33;99317.59;;;11.46;75.97
75759;BME280;64371;47.566;19.086;2023-04-25T01:28:36;99318.06;;;11.39;76.08
75759;BME280;64371;47.566;19.086;2023-04-25T01:31:39;99321.66;;;11.43;76.10
75759;BME280;64371;47.566;19.086;2023-04-25T01:34:42;99324.13;;;11.40;76.29
75759;BME280;64371;47.566;19.086;2023-04-25T01:37:45;99328.78;;;11.34;76.49
75759;BME280;64371;47.566;19.086;2023-04-25T01:40:49;99321.19;;;11.32;76.92
75759;BME280;64371;47.566;19.086;2023-04-25T01:43:54;99319.94;;;11.30;76.91
75759;BME280;64371;47.566;19.086;2023-04-25T01:46:56;99326.47;;;11.32;76.50
75759;BME280;64371;47.566;19.086;2023-04-25T01:50:02;99322.56;;;11.30;77.04
75759;BME280;64371;47.566;19.086;2023-04-25T01:53:06;99317.28;;;11.30;75.70
75759;BME280;64371;47.566;19.086;2023-04-25T01:56:08;99322.88;;;11.28;75.78
75759;BME280;64371;47.566;19.086;2023-04-25T01:59:11;99315.44;;;11.30;75.13
75759;BME280;64371;47.566;19.086;2023-04-25T02:02:27;99321.31;;;11.36;75.40
75759;BME280;64371;47.566;19.086;2023-04-25T02:05:34;99311.84;;;11.26;76.20
75759;BME280;64371;47.566;19.086;2023-04-25T02:08:39;99316.69;;;11.42;73.66
75759;BME280;64371;47.566;19.086;2023-04-25T02:11:41;99318.09;;;11.48;72.43
75759;BME280;64371;47.566;19.086;2023-04-25T02:15:10;99319.94;;;11.56;71.50
75759;BME280;64371;47.566;19.086;2023-04-25T02:18:22;99321.66;;;11.60;70.63
75759;BME280;64371;47.566;19.086;2023-04-25T02:21:24;99321.19;;;11.58;71.01
75759;BME280;64371;47.566;19.086;2023-04-25T02:24:28;99322.91;;;11.63;70.60
75759;BME280;64371;47.566;19.086;2023-04-25T02:27:31;99316.22;;;11.65;69.84
75759;BME280;64371;47.566;19.086;2023-04-25T02:30:33;99331.66;;;11.72;70.51
75759;BME280;64371;47.566;19.086;2023-04-25T02:33:39;99322.50;;;11.69;69.79
75759;BME280;64371;47.566;19.086;2023-04-25T02:36:42;99325.72;;;11.66;69.72
75759;BME280;64371;47.566;19.086;2023-04-25T02:39:44;99315.47;;;11.65;68.81
75759;BME280;64371;47.566;19.086;2023-04-25T02:42:47;99329.91;;;11.67;67.96
75759;BME280;64371;47.566;19.086;2023-04-25T02:45:49;99326.22;;;11.68;66.91
75759;BME280;64371;47.566;19.086;2023-04-25T02:48:52;99308.66;;;11.72;66.01
75759;BME280;64371;47.566;19.086;2023-04-25T02:51:55;99316.28;;;11.74;65.43
75759;BME280;64371;47.566;19.086;2023-04-25T02:54:57;99313.47;;;11.70;65.10
75759;BME280;64371;47.566;19.086;2023-04-25T02:58:01;99317.34;;;11.73;65.06
75759;BME280;64371;47.566;19.086;2023-04-25T03:01:23;99314.09;;;11.67;65.62
75759;BME280;64371;47.566;19.086;2023-04-25T03:04:26;99313.00;;;11.68;64.98
75759;BME280;64371;47.566;19.086;2023-04-25T03:07:29;99317.50;;;11.68;65.27
75759;BME280;64371;47.566;19.086;2023-04-25T03:10:31;99317.03;;;11.57;66.89
75759;BME280;64371;47.566;19.086;2023-04-25T03:13:38;99323.38;;;11.56;67.61
75759;BME280;64371;47.566;19.086;2023-04-25T03:16:42;99317.59;;;11.46;69.17
75759;BME280;64371;47.566;19.086;2023-04-25T03:19:44;99309.38;;;11.39;69.59
75759;BME280;64371;47.566;19.086;2023-04-25T03:22:47;99310.00;;;11.36;70.25
75759;BME280;64371;47.566;19.086;2023-04-25T03:25:49;99302.69;;;11.24;70.39
75759;BME280;64371;47.566;19.086;2023-04-25T03:28:51;99309.34;;;11.21;71.14
75759;BME280;64371;47.566;19.086;2023-04-25T03:31:54;99310.28;;;11.17;71.19
75759;BME280;64371;47.566;19.086;2023-04-25T03:34:56;99306.38;;;11.14;70.75
75759;BME280;64371;47.566;19.086;2023-04-25T03:38:00;99301.59;;;11.16;70.20
75759;BME280;64371;47.566;19.086;2023-04-25T03:41:07;99300.50;;;11.17;69.82
75759;BME280;64371;47.566;19.086;2023-04-25T03:44:17;99307.03;;;11.11;70.79
75759;BME280;64371;47.566;19.086;2023-04-25T03:47:19;99304.81;;;11.05;71.57
75759;BME280;64371;47.566;19.086;2023-04-25T03:50:23;99298.41;;;10.89;72.17
75759;BME280;64371;47.566;19.086;2023-04-25T03:53:26;99307.59;;;10.91;71.86
75759;BME280;64371;47.566;19.086;2023-04-25T03:56:57;99312.81;;;10.83;71.46
75759;BME280;64371;47.566;19.086;2023-04-25T04:00:02;99317.19;;;10.87;72.43
75759;BME280;64371;47.566;19.086;2023-04-25T04:03:14;99311.59;;;10.80;73.20
75759;BME280;64371;47.566;19.086;2023-04-25T04:06:17;99317.34;;;10.82;73.48
75759;BME280;64371;47.566;19.086;2023-04-25T04:09:23;99318.78;;;10.66;72.91
75759;BME280;64371;47.566;19.086;2023-04-25T04:12:26;99315.41;;;10.65;72.61
75759;BME280;64371;47.566;19.086;2023-04-25T04:15:28;99324.19;;;10.61;74.16
75759;BME280;64371;47.566;19.086;2023-04-25T04:18:31;99339.63;;;10.45;74.56
75759;BME280;64371;47.566;19.086;2023-04-25T04:21:36;99328.19;;;10.50;74.86
75759;BME280;64371;47.566;19.086;2023-04-25T04:24:39;99336.56;;;10.52;75.22
75759;BME280;64371;47.566;19.086;2023-04-25T04:27:42;99326.78;;;10.44;75.70
75759;BME280;64371;47.566;19.086;2023-04-25T04:31:10;99332.44;;;10.37;76.37
75759;BME280;64371;47.566;19.086;2023-04-25T04:34:13;99343.75;;;10.29;76.52
75759;BME280;64371;47.566;19.086;2023-04-25T04:37:15;99325.13;;;10.26;76.21
75759;BME280;64371;47.566;19.086;2023-04-25T04:40:18;99345.59;;;10.29;76.88
75759;BME280;64371;47.566;19.086;2023-04-25T04:43:27;99337.97;;;10.27;77.10
75759;BME280;64371;47.566;19.086;2023-04-25T04:46:41;99336.56;;;10.21;76.41
75759;BME280;64371;47.566;19.086;2023-04-25T04:49:47;99342.66;;;10.30;76.45
75759;BME280;64371;47.566;19.086;2023-04-25T04:53:04;99348.22;;;10.29;76.19
75759;BME280;64371;47.566;19.086;2023-04-25T04:56:26;99349.47;;;10.31;75.29
75759;BME280;64371;47.566;19.086;2023-04-25T04:59:50;99344.72;;;10.42;75.66
75759;BME280;64371;47.566;19.086;2023-04-25T05:03:16;99336.56;;;10.52;73.22
75759;BME280;64371;47.566;19.086;2023-04-25T05:06:36;99344.66;;;10.55;72.71
75759;BME280;64371;47.566;19.086;2023-04-25T05:09:58;99356.47;;;10.36;77.03
75759;BME280;64371;47.566;19.086;2023-04-25T05:13:09;99363.72;;;10.30;77.44
75759;BME280;64371;47.566;19.086;2023-04-25T05:16:31;99360.78;;;10.10;80.22
75759;BME280;64371;47.566;19.086;2023-04-25T05:19:57;99367.97;;;10.18;80.15
75759;BME280;64371;47.566;19.086;2023-04-25T05:23:09;99362.44;;;10.06;79.88
75759;BME280;64371;47.566;19.086;2023-04-25T05:26:31;99360.53;;;9.97;80.87
75759;BME280;64371;47.566;19.086;2023-04-25T05:30:03;99356.22;;;10.01;80.16
75759;BME280;64371;47.566;19.086;2023-04-25T05:33:21;99368.13;;;9.99;80.50
75759;BME280;64371;47.566;19.086;2023-04-25T05:36:24;99353.69;;;9.96;81.06
75759;BME280;64371;47.566;19.086;2023-04-25T05:39:27;99350.69;;;9.89;81.57
75759;BME280;64371;47.566;19.086;2023-04-25T05:42:47;99353.06;;;9.77;80.68
75759;BME280;64371;47.566;19.086;2023-04-25T05:46:17;99358.66;;;9.76;83.15
75759;BME280;64371;47.566;19.086;2023-04-25T05:49:40;99342.78;;;9.67;82.28
75759;BME280;64371;47.566;19.086;2023-04-25T05:53:04;99368.41;;;9.62;83.77
75759;BME280;64371;47.566;19.086;2023-04-25T05:56:14;99369.56;;;9.69;84.68
75759;BME280;64371;47.566;19.086;2023-04-25T05:59:16;99367.66;;;9.61;82.74
75759;BME280;64371;47.566;19.086;2023-04-25T06:02:20;99377.19;;;9.57;83.91
75759;BME280;64371;47.566;19.086;2023-04-25T06:05:24;99368.81;;;9.55;84.10
75759;BME280;64371;47.566;19.086;2023-04-25T06:08:27;99373.50;;;9.45;84.40
75759;BME280;64371;47.566;19.086;2023-04-25T06:11:29;99367.47;;;9.44;86.53
75759;BME280;64371;47.566;19.086;2023-04-25T06:14:35;99377.97;;;9.58;85.46
75759;BME280;64371;47.566;19.086;2023-04-25T06:17:38;99378.66;;;9.63;86.17
75759;BME280;64371;47.566;19.086;2023-04-25T06:20:41;99378.81;;;9.67;86.05
75759;BME280;64371;47.566;19.086;2023-04-25T06:23:43;99387.97;;;9.69;86.06
75759;BME280;64371;47.566;19.086;2023-04-25T06:26:52;99382.25;;;9.67;85.46
75759;BME280;64371;47.566;19.086;2023-04-25T06:29:55;99387.22;;;9.69;84.47
75759;BME280;64371;47.566;19.086;2023-04-25T06:32:58;99390.72;;;9.78;83.99
75759;BME280;64371;47.566;19.086;2023-04-25T06:36:03;99387.25;;;9.91;86.06
75759;BME280;64371;47.566;19.086;2023-04-25T06:39:07;99385.28;;;9.96;84.41
75759;BME280;64371;47.566;19.086;2023-04-25T06:42:09;99383.38;;;10.11;83.31
75759;BME280;64371;47.566;19.086;2023-04-25T06:45:21;99375.31;;;10.07;84.60
75759;BME280;64371;47.566;19.086;2023-04-25T06:48:24;99371.25;;;10.23;84.34
75759;BME280;64371;47.566;19.086;2023-04-25T06:51:29;99375.88;;;10.40;84.71
75759;BME280;64371;47.566;19.086;2023-04-25T06:54:33;99380.03;;;11.42;79.78
75759;BME280;64371;47.566;19.086;2023-04-25T06:57:45;99380.31;;;15.92;64.58
75759;BME280;64371;47.566;19.086;2023-04-25T07:01:08;99384.63;;;15.57;67.20
75759;BME280;64371;47.566;19.086;2023-04-25T07:04:11;99383.81;;;14.84;69.61
75759;BME280;64371;47.566;19.086;2023-04-25T07:07:20;99385.81;;;14.99;69.89
75759;BME280;64371;47.566;19.086;2023-04-25T07:10:29;99386.25;;;14.89;67.04
75759;BME280;64371;47.566;19.086;2023-04-25T07:13:32;99386.47;;;13.36;71.92
75759;BME280;64371;47.566;19.086;2023-04-25T07:16:35;99393.28;;;12.44;75.11
75759;BME280;64371;47.566;19.086;2023-04-25T07:19:37;99379.28;;;12.44;75.15
75759;BME280;64371;47.566;19.086;2023-04-25T07:22:43;99380.06;;;12.36;76.21
75759;BME280;64371;47.566;19.086;2023-04-25T07:25:46;99372.69;;;13.22;73.08
75759;BME280;64371;47.566;19.086;2023-04-25T07:28:53;99386.22;;;13.20;72.27
75759;BME280;64371;47.566;19.086;2023-04-25T07:31:56;99382.34;;;12.63;73.80
75759;BME280;64371;47.566;19.086;2023-04-25T07:34:59;99378.25;;;12.28;73.53
75759;BME280;64371;47.566;19.086;2023-04-25T07:38:02;99381.19;;;11.83;75.66
75759;BME280;64371;47.566;19.086;2023-04-25T07:41:05;99385.56;;;12.05;75.58
75759;BME280;64371;47.566;19.086;2023-04-25T07:44:07;99378.69;;;12.30;73.66
75759;BME280;64371;47.566;19.086;2023-04-25T07:47:10;99390.44;;;12.67;75.27
75759;BME280;64371;47.566;19.086;2023-04-25T07:50:13;99386.16;;;12.28;75.93
75759;BME280;64371;47.566;19.086;2023-04-25T07:53:16;99387.13;;;12.06;73.94
75759;BME280;64371;47.566;19.086;2023-04-25T07:56:30;99382.22;;;12.51;76.02
75759;BME280;64371;47.566;19.086;2023-04-25T07:59:53;99383.09;;;12.81;74.10
75759;BME280;64371;47.566;19.086;2023-04-25T08:02:56;99380.13;;;12.82;72.49
75759;BME280;64371;47.566;19.086;2023-04-25T08:05:59;99376.78;;;13.40;69.57
75759;BME280;64371;47.566;19.086;2023-04-25T08:09:10;99388.47;;;13.39;69.20
75759;BME280;64371;47.566;19.086;2023-04-25T08:12:15;99384.56;;;12.99;69.27
75759;BME280;64371;47.566;19.086;2023-04-25T08:15:18;99388.28;;;13.15;70.29
75759;BME280;64371;47.566;19.086;2023-04-25T08:18:21;99396.22;;;13.44;67.89
75759;BME280;64371;47.566;19.086;2023-04-25T08:21:25;99396.25;;;13.65;66.48
75759;BME280;64371;47.566;19.086;2023-04-25T08:24:31;99390.19;;;14.06;65.34
75759;BME280;64371;47.566;19.086;2023-04-25T08:27:33;99395.25;;;14.52;63.55
75759;BME280;64371;47.566;19.086;2023-04-25T08:30:37;99394.34;;;14.48;64.10
75759;BME280;64371;47.566;19.086;2023-04-25T08:33:40;99397.41;;;13.76;64.25
75759;BME280;64371;47.566;19.086;2023-04-25T08:37:06;99402.09;;;14.00;65.38
75759;BME280;64371;47.566;19.086;2023-04-25T08:40:27;99394.75;;;13.76;64.20
75759;BME280;64371;47.566;19.086;2023-04-25T08:43:38;99406.78;;;13.73;64.58
75759;BME280;64371;47.566;19.086;2023-04-25T08:46:46;99399.38;;;12.91;66.90
75759;BME280;64371;47.566;19.086;2023-04-25T08:50:03;99414.59;;;13.11;66.58
75759;BME280;64371;47.566;19.086;2023-04-25T08:53:09;99414.16;;;13.39;65.37
75759;BME280;64371;47.566;19.086;2023-04-25T08:56:15;99414.34;;;13.63;64.28
75759;BME280;64371;47.566;19.086;2023-04-25T08:59:19;99413.38;;;13.38;65.96
75759;BME280;64371;47.566;19.086;2023-04-25T09:02:24;99411.50;;;13.68;66.21
75759;BME280;64371;47.566;19.086;2023-04-25T09:05:28;99423.00;;;14.13;64.40
75759;BME280;64371;47.566;19.086;2023-04-25T09:08:31;99420.22;;;13.89;64.01
75759;BME280;64371;47.566;19.086;2023-04-25T09:11:34;99414.25;;;13.51;63.46
75759;BME280;64371;47.566;19.086;2023-04-25T09:15:01;99415.16;;;13.25;63.63
75759;BME280;64371;47.566;19.086;2023-04-25T09:18:31;99414.19;;;17.57;62.15
75759;BME280;64371;47.566;19.086;2023-04-25T09:21:35;99430.72;;;15.16;56.93
75759;BME280;64371;47.566;19.086;2023-04-25T09:24:42;99419.59;;;14.66;59.99
75759;BME280;64371;47.566;19.086;2023-04-25T09:27:50;99419.72;;;14.70;58.92
75759;BME280;64371;47.566;19.086;2023-04-25T09:31:03;99411.28;;;15.37;57.98
75759;BME280;64371;47.566;19.086;2023-04-25T09:34:20;99406.63;;;15.58;55.95
75759;BME280;64371;47.566;19.086;2023-04-25T09:37:29;99410.28;;;15.41;58.19
75759;BME280;64371;47.566;19.086;2023-04-25T09:40:51;99407.69;;;16.92;53.69
75759;BME280;64371;47.566;19.086;2023-04-25T09:44:02;99412.28;;;16.36;53.83
75759;BME280;64371;47.566;19.086;2023-04-25T09:47:11;99417.16;;;16.62;53.23
75759;BME280;64371;47.566;19.086;2023-04-25T09:50:16;99411.84;;;15.30;54.51
75759;BME280;64371;47.566;19.086;2023-04-25T09:53:23;99404.97;;;15.29;54.91
75759;BME280;64371;47.566;19.086;2023-04-25T09:56:41;99418.31;;;14.84;55.50
75759;BME280;64371;47.566;19.086;2023-04-25T09:59:49;99406.09;;;15.28;54.74
75759;BME280;64371;47.566;19.086;2023-04-25T10:02:52;99404.38;;;14.99;54.63
75759;BME280;64371;47.566;19.086;2023-04-25T10:06:24;99416.69;;;14.92;55.94
75759;BME280;64371;47.566;19.086;2023-04-25T10:09:31;99414.91;;;15.08;56.47
75759;BME280;64371;47.566;19.086;2023-04-25T10:12:35;99407.06;;;15.23;56.09
75759;BME280;64371;47.566;19.086;2023-04-25T10:15:38;99407.63;;;15.41;54.95
75759;BME280;64371;47.566;19.086;2023-04-25T10:18:41;99412.28;;;15.32;54.51
75759;BME280;64371;47.566;19.086;2023-04-25T10:21:51;99408.53;;;15.21;55.19
75759;BME280;64371;47.566;19.086;2023-04-25T10:24:55;99406.75;;;15.37;55.46
75759;BME280;64371;47.566;19.086;2023-04-25T10:27:59;99406.94;;;15.08;54.60
75759;BME280;64371;47.566;19.086;2023-04-25T10:31:03;99405.31;;;14.58;55.66
75759;BME280;64371;47.566;19.086;2023-04-25T10:34:06;99400.50;;;14.40;55.51
75759;BME280;64371;47.566;19.086;2023-04-25T10:37:12;99400.38;;;14.69;55.31
75759;BME280;64371;47.566;19.086;2023-04-25T10:40:21;99401.22;;;14.61;54.31
75759;BME280;64371;47.566;19.086;2023-04-25T10:43:44;99403.94;;;14.40;55.60
75759;BME280;64371;47.566;19.086;2023-04-25T10:46:47;99403.38;;;14.68;54.03
75759;BME280;64371;47.566;19.086;2023-04-25T10:49:50;99413.66;;;14.48;54.60
75759;BME280;64371;47.566;19.086;2023-04-25T10:52:53;99421.00;;;14.96;53.13
75759;BME280;64371;47.566;19.086;2023-04-25T10:55:55;99416.38;;;15.17;53.31
75759;BME280;64371;47.566;19.086;2023-04-25T10:59:25;99413.47;;;15.10;53.09
75759;BME280;64371;47.566;19.086;2023-04-25T11:02:27;99413.16;;;15.24;51.80
75759;BME280;64371;47.566;19.086;2023-04-25T11:08:48;99431.94;;;15.31;51.64
75759;BME280;64371;47.566;19.086;2023-04-25T11:11:54;99427.78;;;15.42;51.53
75759;BME280;64371;47.566;19.086;2023-04-25T11:15:01;99415.94;;;15.64;50.99
75759;BME280;64371;47.566;19.086;2023-04-25T11:18:03;99433.72;;;15.15;51.07
75759;BME280;64371;47.566;19.086;2023-04-25T11:21:06;99433.75;;;15.51;50.68
75759;BME280;64371;47.566;19.086;2023-04-25T11:24:08;99445.22;;;15.43;50.01
75759;BME280;64371;47.566;19.086;2023-04-25T11:27:12;99445.38;;;15.59;49.24
75759;BME280;64371;47.566;19.086;2023-04-25T11:30:15;99445.19;;;16.04;47.65
75759;BME280;64371;47.566;19.086;2023-04-25T11:33:18;99452.56;;;15.58;49.44
75759;BME280;64371;47.566;19.086;2023-04-25T11:36:25;99446.34;;;15.18;49.90
75759;BME280;64371;47.566;19.086;2023-04-25T11:39:28;99438.28;;;15.51;49.52
75759;BME280;64371;47.566;19.086;2023-04-25T11:42:31;99440.50;;;15.73;48.58
75759;BME280;64371;47.566;19.086;2023-04-25T11:45:33;99443.69;;;15.78;48.49
75759;BME280;64371;47.566;19.086;2023-04-25T11:48:42;99449.59;;;15.72;48.13
75759;BME280;64371;47.566;19.086;2023-04-25T11:51:47;99446.16;;;15.47;48.53
75759;BME280;64371;47.566;19.086;2023-04-25T11:54:49;99453.75;;;15.12;49.09
75759;BME280;64371;47.566;19.086;2023-04-25T11:57:52;99451.69;;;14.85;48.94
75759;BME280;64371;47.566;19.086;2023-04-25T12:00:54;99458.13;;;14.84;50.32
75759;BME280;64371;47.566;19.086;2023-04-25T12:04:15;99462.69;;;15.08;48.61
75759;BME280;64371;47.566;19.086;2023-04-25T12:07:18;99466.81;;;15.29;46.72
75759;BME280;64371;47.566;19.086;2023-04-25T12:10:24;99463.97;;;15.71;45.75
75759;BME280;64371;47.566;19.086;2023-04-25T12:13:27;99484.13;;;15.60;46.44
75759;BME280;64371;47.566;19.086;2023-04-25T12:16:43;99476.16;;;15.60;46.54
75759;BME280;64371;47.566;19.086;2023-04-25T12:19:46;99464.84;;;15.63;45.34
75759;BME280;64371;47.566;19.086;2023-04-25T12:22:50;99459.22;;;15.64;44.29
75759;BME280;64371;47.566;19.086;2023-04-25T12:25:52;99455.88;;;15.79;45.69
75759;BME280;64371;47.566;19.086;2023-04-25T12:28:55;99456.63;;;15.92;47.47
75759;BME280;64371;47.566;19.086;2023-04-25T12:31:57;99455.50;;;16.05;47.22
75759;BME280;64371;47.566;19.086;2023-04-25T12:35:01;99461.00;;;16.24;46.87
75759;BME280;64371;47.566;19.086;2023-04-25T12:38:03;99451.75;;;16.34;45.43
75759;BME280;64371;47.566;19.086;2023-04-25T12:41:06;99445.91;;;15.88;44.44
75759;BME280;64371;47.566;19.086;2023-04-25T12:44:09;99449.47;;;16.20;44.56
75759;BME280;64371;47.566;19.086;2023-04-25T12:47:12;99441.03;;;16.58;43.11
75759;BME280;64371;47.566;19.086;2023-04-25T12:50:14;99431.69;;;16.64;43.01
75759;BME280;64371;47.566;19.086;2023-04-25T12:53:18;99442.94;;;16.45;42.94
75759;BME280;64371;47.566;19.086;2023-04-25T12:56:21;99428.53;;;16.46;41.40
75759;BME280;64371;47.566;19.086;2023-04-25T12:59:26;99431.66;;;16.09;43.03
75759;BME280;64371;47.566;19.086;2023-04-25T13:02:28;99436.47;;;16.31;43.15
75759;BME280;64371;47.566;19.086;2023-04-25T13:05:31;99440.72;;;16.75;42.28
75759;BME280;64371;47.566;19.086;2023-04-25T13:08:34;99430.84;;;16.48;41.39
75759;BME280;64371;47.566;19.086;2023-04-25T13:11:38;99430.19;;;15.83;42.59
75759;BME280;64371;47.566;19.086;2023-04-25T13:14:41;99435.94;;;15.85;41.52
75759;BME280;64371;47.566;19.086;2023-04-25T13:17:43;99425.56;;;16.20;41.59
75759;BME280;64371;47.566;19.086;2023-04-25T13:20:46;99424.38;;;16.06;40.43
75759;BME280;64371;47.566;19.086;2023-04-25T13:23:48;99416.13;;;16.23;41.40
75759;BME280;64371;47.566;19.086;2023-04-25T13:26:51;99412.22;;;15.92;41.58
75759;BME280;64371;47.566;19.086;2023-04-25T13:29:53;99417.25;;;16.10;42.23
75759;BME280;64371;47.566;19.086;2023-04-25T13:32:56;99400.00;;;16.04;40.85
75759;BME280;64371;47.566;19.086;2023-04-25T13:36:00;99414.53;;;15.94;41.19
75759;BME280;64371;47.566;19.086;2023-04-25T13:39:03;99401.25;;;15.94;39.68
75759;BME280;64371;47.566;19.086;2023-04-25T13:42:07;99406.75;;;16.01;40.57
75759;BME280;64371;47.566;19.086;2023-04-25T13:45:09;99404.09;;;16.01;38.64
75759;BME280;64371;47.566;19.086;2023-04-25T13:48:13;99414.03;;;16.16;39.69
75759;BME280;64371;47.566;19.086;2023-04-25T13:51:15;99412.59;;;15.79;38.13
75759;BME280;64371;47.566;19.086;2023-04-25T13:54:19;99409.19;;;15.66;39.12
75759;BME280;64371;47.566;19.086;2023-04-25T13:57:22;99406.84;;;15.65;39.90
75759;BME280;64371;47.566;19.086;2023-04-25T14:00:24;99410.56;;;15.88;39.59
75759;BME280;64371;47.566;19.086;2023-04-25T14:03:27;99408.59;;;15.73;39.93
75759;BME280;64371;47.566;19.086;2023-04-25T14:06:31;99407.97;;;15.64;39.46
75759;BME280;64371;47.566;19.086;2023-04-25T14:09:33;99403.09;;;15.66;39.63
75759;BME280;64371;47.566;19.086;2023-04-25T14:12:36;99405.31;;;15.64;39.84
75759;BME280;64371;47.566;19.086;2023-04-25T14:15:38;99399.41;;;15.82;39.63
75759;BME280;64371;47.566;19.086;2023-04-25T14:18:41;99400.66;;;15.49;41.45
75759;BME280;64371;47.566;19.086;2023-04-25T14:21:44;99387.16;;;15.54;40.60
75759;BME280;64371;47.566;19.086;2023-04-25T14:24:46;99408.75;;;15.64;41.10
75759;BME280;64371;47.566;19.086;2023-04-25T14:27:48;99403.03;;;15.90;40.60
75759;BME280;64371;47.566;19.086;2023-04-25T14:30:54;99404.22;;;16.05;40.57
75759;BME280;64371;47.566;19.086;2023-04-25T14:33:56;99383.75;;;15.93;40.22
75759;BME280;64371;47.566;19.086;2023-04-25T14:37:00;99404.94;;;16.17;39.97
75759;BME280;64371;47.566;19.086;2023-04-25T14:40:03;99404.22;;;16.05;40.42
75759;BME280;64371;47.566;19.086;2023-04-25T14:43:07;99400.81;;;15.92;39.35
75759;BME280;64371;47.566;19.086;2023-04-25T14:46:10;99404.16;;;15.77;38.94
75759;BME280;64371;47.566;19.086;2023-04-25T14:49:13;99408.25;;;15.74;39.71
75759;BME280;64371;47.566;19.086;2023-04-25T14:52:15;99391.88;;;15.72;39.22
75759;BME280;64371;47.566;19.086;2023-04-25T14:55:18;99413.59;;;15.62;40.23
75759;BME280;64371;47.566;19.086;2023-04-25T14:58:20;99400.66;;;15.49;40.46
75759;BME280;64371;47.566;19.086;2023-04-25T15:01:23;99406.97;;;15.56;40.59
75759;BME280;64371;47.566;19.086;2023-04-25T15:04:26;99405.75;;;15.54;39.03
75759;BME280;64371;47.566;19.086;2023-04-25T15:07:29;99411.03;;;15.42;39.83
75759;BME280;64371;47.566;19.086;2023-04-25T15:10:32;99419.34;;;15.16;40.20
75759;BME280;64371;47.566;19.086;2023-04-25T15:13:35;99425.41;;;15.16;40.85
75759;BME280;64371;47.566;19.086;2023-04-25T15:16:38;99410.19;;;15.13;40.29
75759;BME280;64371;47.566;19.086;2023-04-25T15:19:41;99408.72;;;14.92;39.48
75759;BME280;64371;47.566;19.086;2023-04-25T15:22:44;99417.75;;;14.79;40.39
75759;BME280;64371;47.566;19.086;2023-04-25T15:25:51;99412.06;;;14.68;40.61
75759;BME280;64371;47.566;19.086;2023-04-25T15:28:54;99411.72;;;14.57;41.39
75759;BME280;64371;47.566;19.086;2023-04-25T15:31:57;99405.28;;;14.46;41.62
75759;BME280;64371;47.566;19.086;2023-04-25T15:35:05;99419.34;;;14.59;41.88
75759;BME280;64371;47.566;19.086;2023-04-25T15:38:08;99417.78;;;14.91;41.76
75759;BME280;64371;47.566;19.086;2023-04-25T15:41:12;99418.13;;;15.01;40.26
75759;BME280;64371;47.566;19.086;2023-04-25T15:44:15;99419.34;;;15.16;40.61
75759;BME280;64371;47.566;19.086;2023-04-25T15:47:17;99422.97;;;15.23;40.05
75759;BME280;64371;47.566;19.086;2023-04-25T15:50:19;99420.88;;;15.05;40.71
75759;BME280;64371;47.566;19.086;2023-04-25T15:53:22;99421.84;;;14.88;41.92
75759;BME280;64371;47.566;19.086;2023-04-25T15:56:24;99425.56;;;14.75;44.79
75759;BME280;64371;47.566;19.086;2023-04-25T15:59:27;99435.16;;;14.55;47.58
75759;BME280;64371;47.566;19.086;2023-04-25T16:02:29;99428.81;;;14.27;50.88
75759;BME280;64371;47.566;19.086;2023-04-25T16:05:32;99426.81;;;14.04;52.11
75759;BME280;64371;47.566;19.086;2023-04-25T16:08:37;99435.22;;;13.85;52.83
75759;BME280;64371;47.566;19.086;2023-04-25T16:11:40;99423.59;;;13.48;53.95
75759;BME280;64371;47.566;19.086;2023-04-25T16:14:42;99434.63;;;13.29;55.31